sim
Sign-in with your pilot id or email,
or register
Callsign
Passwort

Schedule Details

Flight Number: DLH1893
Departure: Bilbao Airport (LEBB) at 13:10
Arrival: Munich Airport (EDDM) at 15:20
Route: Lufthansa Passenger Schedule. Enter filed route here before submitting Pirep.

Weather Information
Getting current METAR information for LEBB 192230Z AUTO VRB01KT CAVOK 17/16 Q1015
Getting current METAR information for EDDM 192250Z VRB01KT CAVOK 09/08 Q1017 NOSIG

Schedule Frequency

Route Map